sensor_id;sensor_type;location;lat;lon;timestamp;P1;durP1;ratioP1;P2;durP2;ratioP2
803;SDS011;25687;49.976;8.240;2023-05-02T00:02:00;5.40;;;5.00;;
803;SDS011;25687;49.976;8.240;2023-05-02T00:04:25;6.27;;;5.67;;
803;SDS011;25687;49.976;8.240;2023-05-02T00:06:51;6.73;;;6.13;;
803;SDS011;25687;49.976;8.240;2023-05-02T00:09:17;7.57;;;5.90;;
803;SDS011;25687;49.976;8.240;2023-05-02T00:11:43;6.43;;;5.83;;
803;SDS011;25687;49.976;8.240;2023-05-02T00:14:08;7.03;;;6.27;;
803;SDS011;25687;49.976;8.240;2023-05-02T00:16:33;6.30;;;5.70;;
803;SDS011;25687;49.976;8.240;2023-05-02T00:18:58;8.30;;;6.67;;
803;SDS011;25687;49.976;8.240;2023-05-02T00:21:24;6.80;;;6.20;;
803;SDS011;25687;49.976;8.240;2023-05-02T00:23:52;7.00;;;6.50;;
803;SDS011;25687;49.976;8.240;2023-05-02T00:26:17;8.13;;;7.43;;
803;SDS011;25687;49.976;8.240;2023-05-02T00:28:42;8.60;;;7.83;;
803;SDS011;25687;49.976;8.240;2023-05-02T00:31:08;8.60;;;7.90;;
803;SDS011;25687;49.976;8.240;2023-05-02T00:33:34;9.53;;;8.63;;
803;SDS011;25687;49.976;8.240;2023-05-02T00:35:59;9.37;;;8.47;;
803;SDS011;25687;49.976;8.240;2023-05-02T00:38:24;10.03;;;9.13;;
803;SDS011;25687;49.976;8.240;2023-05-02T00:40:50;10.73;;;9.53;;
803;SDS011;25687;49.976;8.240;2023-05-02T00:43:16;10.40;;;9.50;;
803;SDS011;25687;49.976;8.240;2023-05-02T00:45:43;10.13;;;9.33;;
803;SDS011;25687;49.976;8.240;2023-05-02T00:48:10;11.17;;;10.07;;
803;SDS011;25687;49.976;8.240;2023-05-02T00:50:36;10.70;;;9.77;;
803;SDS011;25687;49.976;8.240;2023-05-02T00:53:03;11.07;;;10.07;;
803;SDS011;25687;49.976;8.240;2023-05-02T00:55:30;11.53;;;10.63;;
803;SDS011;25687;49.976;8.240;2023-05-02T00:57:57;12.33;;;11.07;;
803;SDS011;25687;49.976;8.240;2023-05-02T01:00:24;13.17;;;11.53;;
803;SDS011;25687;49.976;8.240;2023-05-02T01:03:04;12.43;;;11.27;;
803;SDS011;25687;49.976;8.240;2023-05-02T01:05:43;12.40;;;11.30;;
803;SDS011;25687;49.976;8.240;2023-05-02T01:08:34;13.53;;;12.33;;
803;SDS011;25687;49.976;8.240;2023-05-02T01:11:06;13.40;;;12.17;;
803;SDS011;25687;49.976;8.240;2023-05-02T01:13:39;13.90;;;12.67;;
803;SDS011;25687;49.976;8.240;2023-05-02T01:16:06;15.40;;;13.87;;
803;SDS011;25687;49.976;8.240;2023-05-02T01:18:35;14.17;;;12.73;;
803;SDS011;25687;49.976;8.240;2023-05-02T01:21:08;14.53;;;13.23;;
803;SDS011;25687;49.976;8.240;2023-05-02T01:26:37;14.33;;;12.93;;
803;SDS011;25687;49.976;8.240;2023-05-02T01:29:14;15.00;;;13.60;;
803;SDS011;25687;49.976;8.240;2023-05-02T01:31:43;16.20;;;14.80;;
803;SDS011;25687;49.976;8.240;2023-05-02T01:34:12;17.20;;;15.53;;
803;SDS011;25687;49.976;8.240;2023-05-02T01:36:41;18.20;;;16.50;;
803;SDS011;25687;49.976;8.240;2023-05-02T01:39:09;18.33;;;16.47;;
803;SDS011;25687;49.976;8.240;2023-05-02T01:41:37;19.77;;;17.77;;
803;SDS011;25687;49.976;8.240;2023-05-02T01:44:03;19.40;;;17.50;;
803;SDS011;25687;49.976;8.240;2023-05-02T01:46:32;21.30;;;19.40;;
803;SDS011;25687;49.976;8.240;2023-05-02T01:49:00;22.20;;;20.03;;
803;SDS011;25687;49.976;8.240;2023-05-02T01:51:29;21.03;;;19.07;;
803;SDS011;25687;49.976;8.240;2023-05-02T01:53:57;21.37;;;19.27;;
803;SDS011;25687;49.976;8.240;2023-05-02T01:56:25;23.40;;;21.20;;
803;SDS011;25687;49.976;8.240;2023-05-02T01:58:53;23.47;;;21.10;;
803;SDS011;25687;49.976;8.240;2023-05-02T02:01:19;22.77;;;20.67;;
803;SDS011;25687;49.976;8.240;2023-05-02T02:03:48;22.33;;;20.33;;
803;SDS011;25687;49.976;8.240;2023-05-02T02:06:14;23.93;;;21.73;;
803;SDS011;25687;49.976;8.240;2023-05-02T02:08:39;24.47;;;22.07;;
803;SDS011;25687;49.976;8.240;2023-05-02T02:11:07;24.87;;;22.57;;
803;SDS011;25687;49.976;8.240;2023-05-02T02:13:36;25.43;;;23.03;;
803;SDS011;25687;49.976;8.240;2023-05-02T02:16:08;24.80;;;22.33;;
803;SDS011;25687;49.976;8.240;2023-05-02T02:18:36;25.80;;;23.30;;
803;SDS011;25687;49.976;8.240;2023-05-02T02:21:05;25.23;;;22.93;;
803;SDS011;25687;49.976;8.240;2023-05-02T02:23:31;26.33;;;24.03;;
803;SDS011;25687;49.976;8.240;2023-05-02T02:25:58;29.10;;;26.30;;
803;SDS011;25687;49.976;8.240;2023-05-02T02:28:26;31.10;;;27.73;;
803;SDS011;25687;49.976;8.240;2023-05-02T02:30:51;29.47;;;26.60;;
803;SDS011;25687;49.976;8.240;2023-05-02T02:33:17;35.73;;;29.00;;
803;SDS011;25687;49.976;8.240;2023-05-02T02:35:47;32.63;;;29.60;;
803;SDS011;25687;49.976;8.240;2023-05-02T02:40:56;33.63;;;30.43;;
803;SDS011;25687;49.976;8.240;2023-05-02T02:46:20;35.97;;;32.23;;
803;SDS011;25687;49.976;8.240;2023-05-02T02:48:56;37.93;;;34.00;;
803;SDS011;25687;49.976;8.240;2023-05-02T02:52:09;38.03;;;34.13;;
803;SDS011;25687;49.976;8.240;2023-05-02T02:54:44;38.80;;;34.67;;
803;SDS011;25687;49.976;8.240;2023-05-02T02:57:17;39.70;;;35.73;;
803;SDS011;25687;49.976;8.240;2023-05-02T03:02:28;42.13;;;37.87;;
803;SDS011;25687;49.976;8.240;2023-05-02T03:04:56;44.07;;;39.37;;
803;SDS011;25687;49.976;8.240;2023-05-02T03:07:22;42.30;;;38.07;;
803;SDS011;25687;49.976;8.240;2023-05-02T03:09:48;42.47;;;38.07;;
803;SDS011;25687;49.976;8.240;2023-05-02T03:12:13;43.33;;;38.80;;
803;SDS011;25687;49.976;8.240;2023-05-02T03:14:39;43.60;;;39.13;;
803;SDS011;25687;49.976;8.240;2023-05-02T03:17:05;46.07;;;41.47;;
803;SDS011;25687;49.976;8.240;2023-05-02T03:19:32;43.50;;;38.90;;
803;SDS011;25687;49.976;8.240;2023-05-02T03:21:57;46.17;;;41.20;;
803;SDS011;25687;49.976;8.240;2023-05-02T03:24:23;45.50;;;40.77;;
803;SDS011;25687;49.976;8.240;2023-05-02T03:26:48;45.50;;;40.70;;
803;SDS011;25687;49.976;8.240;2023-05-02T03:29:14;45.50;;;40.80;;
803;SDS011;25687;49.976;8.240;2023-05-02T03:31:39;45.07;;;40.33;;
803;SDS011;25687;49.976;8.240;2023-05-02T03:34:05;45.43;;;40.67;;
803;SDS011;25687;49.976;8.240;2023-05-02T03:36:30;47.53;;;41.33;;
803;SDS011;25687;49.976;8.240;2023-05-02T03:38:56;47.50;;;42.70;;
803;SDS011;25687;49.976;8.240;2023-05-02T03:41:21;47.97;;;41.53;;
803;SDS011;25687;49.976;8.240;2023-05-02T03:43:48;48.90;;;42.60;;
803;SDS011;25687;49.976;8.240;2023-05-02T03:46:14;49.03;;;43.63;;
803;SDS011;25687;49.976;8.240;2023-05-02T03:48:39;47.93;;;42.13;;
803;SDS011;25687;49.976;8.240;2023-05-02T03:51:05;46.77;;;41.63;;
803;SDS011;25687;49.976;8.240;2023-05-02T03:53:34;52.00;;;43.80;;
803;SDS011;25687;49.976;8.240;2023-05-02T03:55:59;46.77;;;41.80;;
803;SDS011;25687;49.976;8.240;2023-05-02T03:58:24;53.13;;;45.53;;
803;SDS011;25687;49.976;8.240;2023-05-02T04:00:50;47.47;;;42.50;;
803;SDS011;25687;49.976;8.240;2023-05-02T04:03:17;49.77;;;43.23;;
803;SDS011;25687;49.976;8.240;2023-05-02T04:05:42;51.80;;;46.20;;
803;SDS011;25687;49.976;8.240;2023-05-02T04:08:08;47.77;;;42.40;;
803;SDS011;25687;49.976;8.240;2023-05-02T04:10:34;48.93;;;42.50;;
803;SDS011;25687;49.976;8.240;2023-05-02T04:12:59;46.63;;;41.67;;
803;SDS011;25687;49.976;8.240;2023-05-02T04:15:26;47.00;;;42.07;;
803;SDS011;25687;49.976;8.240;2023-05-02T04:17:52;44.53;;;39.67;;
803;SDS011;25687;49.976;8.240;2023-05-02T04:20:18;42.70;;;38.27;;
803;SDS011;25687;49.976;8.240;2023-05-02T04:22:43;45.87;;;40.87;;
803;SDS011;25687;49.976;8.240;2023-05-02T04:25:10;43.10;;;38.70;;
803;SDS011;25687;49.976;8.240;2023-05-02T04:27:35;43.90;;;39.23;;
803;SDS011;25687;49.976;8.240;2023-05-02T04:30:00;47.80;;;41.70;;
803;SDS011;25687;49.976;8.240;2023-05-02T04:32:26;51.73;;;43.93;;
803;SDS011;25687;49.976;8.240;2023-05-02T04:34:51;49.73;;;43.63;;
803;SDS011;25687;49.976;8.240;2023-05-02T04:37:17;47.73;;;42.67;;
803;SDS011;25687;49.976;8.240;2023-05-02T04:39:42;46.90;;;41.90;;
803;SDS011;25687;49.976;8.240;2023-05-02T04:42:07;42.93;;;38.33;;
803;SDS011;25687;49.976;8.240;2023-05-02T04:44:33;45.80;;;40.53;;
803;SDS011;25687;49.976;8.240;2023-05-02T04:46:58;47.17;;;42.27;;
803;SDS011;25687;49.976;8.240;2023-05-02T04:49:23;52.00;;;46.13;;
803;SDS011;25687;49.976;8.240;2023-05-02T04:51:48;55.40;;;48.33;;
803;SDS011;25687;49.976;8.240;2023-05-02T04:54:16;55.47;;;49.37;;
803;SDS011;25687;49.976;8.240;2023-05-02T04:56:41;54.20;;;48.43;;
803;SDS011;25687;49.976;8.240;2023-05-02T04:59:06;55.13;;;48.77;;
803;SDS011;25687;49.976;8.240;2023-05-02T05:01:31;55.47;;;48.53;;
803;SDS011;25687;49.976;8.240;2023-05-02T05:03:57;58.90;;;48.90;;
803;SDS011;25687;49.976;8.240;2023-05-02T05:06:22;52.97;;;47.17;;
803;SDS011;25687;49.976;8.240;2023-05-02T05:08:48;53.10;;;45.87;;
803;SDS011;25687;49.976;8.240;2023-05-02T05:11:13;54.50;;;48.57;;
803;SDS011;25687;49.976;8.240;2023-05-02T05:13:40;54.30;;;47.73;;
803;SDS011;25687;49.976;8.240;2023-05-02T05:16:06;51.53;;;45.93;;
803;SDS011;25687;49.976;8.240;2023-05-02T05:18:31;52.73;;;47.00;;
803;SDS011;25687;49.976;8.240;2023-05-02T05:21:04;48.90;;;42.53;;
803;SDS011;25687;49.976;8.240;2023-05-02T05:23:30;50.30;;;44.80;;
803;SDS011;25687;49.976;8.240;2023-05-02T05:25:55;52.77;;;46.80;;
803;SDS011;25687;49.976;8.240;2023-05-02T05:28:20;50.60;;;44.47;;
803;SDS011;25687;49.976;8.240;2023-05-02T05:30:45;47.57;;;42.40;;
803;SDS011;25687;49.976;8.240;2023-05-02T05:33:11;50.03;;;43.03;;
803;SDS011;25687;49.976;8.240;2023-05-02T05:35:36;48.23;;;42.97;;
803;SDS011;25687;49.976;8.240;2023-05-02T05:38:01;49.13;;;43.17;;
803;SDS011;25687;49.976;8.240;2023-05-02T05:40:26;45.33;;;40.47;;
803;SDS011;25687;49.976;8.240;2023-05-02T05:42:52;48.60;;;41.80;;
803;SDS011;25687;49.976;8.240;2023-05-02T05:45:17;47.60;;;42.20;;
803;SDS011;25687;49.976;8.240;2023-05-02T05:47:43;42.50;;;37.93;;
803;SDS011;25687;49.976;8.240;2023-05-02T05:50:08;48.47;;;42.63;;
803;SDS011;25687;49.976;8.240;2023-05-02T05:52:35;44.70;;;40.00;;
803;SDS011;25687;49.976;8.240;2023-05-02T05:55:01;45.07;;;39.80;;
803;SDS011;25687;49.976;8.240;2023-05-02T05:57:28;49.33;;;40.90;;
803;SDS011;25687;49.976;8.240;2023-05-02T05:59:53;45.07;;;39.63;;
803;SDS011;25687;49.976;8.240;2023-05-02T06:02:18;44.13;;;39.33;;
803;SDS011;25687;49.976;8.240;2023-05-02T06:04:44;45.83;;;40.67;;
803;SDS011;25687;49.976;8.240;2023-05-02T06:07:10;41.37;;;36.87;;
803;SDS011;25687;49.976;8.240;2023-05-02T06:09:36;40.90;;;36.50;;
803;SDS011;25687;49.976;8.240;2023-05-02T06:12:01;43.03;;;38.43;;
803;SDS011;25687;49.976;8.240;2023-05-02T06:14:26;41.97;;;37.57;;
803;SDS011;25687;49.976;8.240;2023-05-02T06:16:52;43.40;;;38.33;;
803;SDS011;25687;49.976;8.240;2023-05-02T06:19:17;41.90;;;37.50;;
803;SDS011;25687;49.976;8.240;2023-05-02T06:21:42;41.73;;;36.77;;
803;SDS011;25687;49.976;8.240;2023-05-02T06:24:08;41.87;;;37.40;;
803;SDS011;25687;49.976;8.240;2023-05-02T06:26:33;42.20;;;37.70;;
803;SDS011;25687;49.976;8.240;2023-05-02T06:28:59;40.13;;;36.03;;
803;SDS011;25687;49.976;8.240;2023-05-02T06:31:25;42.30;;;37.77;;
803;SDS011;25687;49.976;8.240;2023-05-02T06:33:50;43.07;;;38.47;;
803;SDS011;25687;49.976;8.240;2023-05-02T06:36:16;42.17;;;37.77;;
803;SDS011;25687;49.976;8.240;2023-05-02T06:38:41;38.63;;;34.20;;
803;SDS011;25687;49.976;8.240;2023-05-02T06:41:11;40.10;;;36.03;;
803;SDS011;25687;49.976;8.240;2023-05-02T06:43:38;41.30;;;37.07;;
803;SDS011;25687;49.976;8.240;2023-05-02T06:46:03;39.83;;;35.60;;
803;SDS011;25687;49.976;8.240;2023-05-02T06:48:29;43.27;;;38.80;;
803;SDS011;25687;49.976;8.240;2023-05-02T06:50:54;38.97;;;35.00;;
803;SDS011;25687;49.976;8.240;2023-05-02T06:53:19;34.63;;;30.87;;
803;SDS011;25687;49.976;8.240;2023-05-02T06:55:45;33.60;;;30.13;;
803;SDS011;25687;49.976;8.240;2023-05-02T06:58:12;32.33;;;29.17;;
803;SDS011;25687;49.976;8.240;2023-05-02T07:00:37;30.40;;;27.17;;
803;SDS011;25687;49.976;8.240;2023-05-02T07:03:02;26.30;;;23.57;;
803;SDS011;25687;49.976;8.240;2023-05-02T07:05:28;25.57;;;22.97;;
803;SDS011;25687;49.976;8.240;2023-05-02T07:07:53;22.60;;;20.30;;
803;SDS011;25687;49.976;8.240;2023-05-02T07:10:18;19.93;;;16.80;;
803;SDS011;25687;49.976;8.240;2023-05-02T07:12:44;18.13;;;16.20;;
803;SDS011;25687;49.976;8.240;2023-05-02T07:15:09;18.30;;;16.30;;
803;SDS011;25687;49.976;8.240;2023-05-02T07:17:35;19.03;;;17.00;;
803;SDS011;25687;49.976;8.240;2023-05-02T07:20:00;18.83;;;16.60;;
803;SDS011;25687;49.976;8.240;2023-05-02T07:22:25;20.87;;;18.57;;
803;SDS011;25687;49.976;8.240;2023-05-02T07:24:57;22.87;;;19.37;;
803;SDS011;25687;49.976;8.240;2023-05-02T07:27:23;22.83;;;19.37;;
803;SDS011;25687;49.976;8.240;2023-05-02T07:29:48;23.07;;;20.40;;
803;SDS011;25687;49.976;8.240;2023-05-02T07:32:14;23.87;;;21.33;;
803;SDS011;25687;49.976;8.240;2023-05-02T07:34:39;22.83;;;18.77;;
803;SDS011;25687;49.976;8.240;2023-05-02T07:37:04;23.47;;;20.17;;
803;SDS011;25687;49.976;8.240;2023-05-02T07:39:31;21.97;;;19.47;;
803;SDS011;25687;49.976;8.240;2023-05-02T07:41:57;19.37;;;17.37;;
803;SDS011;25687;49.976;8.240;2023-05-02T07:44:22;31.97;;;20.27;;
803;SDS011;25687;49.976;8.240;2023-05-02T07:46:48;22.93;;;17.53;;
803;SDS011;25687;49.976;8.240;2023-05-02T07:49:13;25.60;;;20.20;;
803;SDS011;25687;49.976;8.240;2023-05-02T07:51:38;23.93;;;19.70;;
803;SDS011;25687;49.976;8.240;2023-05-02T07:54:14;20.33;;;17.93;;
803;SDS011;25687;49.976;8.240;2023-05-02T07:56:41;21.77;;;18.57;;
803;SDS011;25687;49.976;8.240;2023-05-02T07:59:06;20.40;;;18.30;;
803;SDS011;25687;49.976;8.240;2023-05-02T08:01:32;19.20;;;17.10;;
803;SDS011;25687;49.976;8.240;2023-05-02T08:03:57;19.03;;;17.00;;
803;SDS011;25687;49.976;8.240;2023-05-02T08:06:22;21.07;;;17.90;;
803;SDS011;25687;49.976;8.240;2023-05-02T08:08:47;20.80;;;17.10;;
803;SDS011;25687;49.976;8.240;2023-05-02T08:11:13;21.77;;;17.33;;
803;SDS011;25687;49.976;8.240;2023-05-02T08:13:38;20.13;;;16.93;;
803;SDS011;25687;49.976;8.240;2023-05-02T08:16:03;22.67;;;18.33;;
803;SDS011;25687;49.976;8.240;2023-05-02T08:18:29;23.50;;;18.53;;
803;SDS011;25687;49.976;8.240;2023-05-02T08:20:54;22.00;;;17.77;;
803;SDS011;25687;49.976;8.240;2023-05-02T08:23:22;21.63;;;17.67;;
803;SDS011;25687;49.976;8.240;2023-05-02T08:25:47;23.37;;;18.23;;
803;SDS011;25687;49.976;8.240;2023-05-02T08:28:12;18.40;;;15.43;;
803;SDS011;25687;49.976;8.240;2023-05-02T08:30:38;19.00;;;14.43;;
803;SDS011;25687;49.976;8.240;2023-05-02T08:33:03;15.73;;;11.80;;
803;SDS011;25687;49.976;8.240;2023-05-02T08:35:28;13.67;;;11.17;;
803;SDS011;25687;49.976;8.240;2023-05-02T08:37:54;10.87;;;9.37;;
803;SDS011;25687;49.976;8.240;2023-05-02T08:40:20;11.63;;;10.10;;
803;SDS011;25687;49.976;8.240;2023-05-02T08:42:46;11.83;;;10.37;;
803;SDS011;25687;49.976;8.240;2023-05-02T08:45:12;12.90;;;10.47;;
803;SDS011;25687;49.976;8.240;2023-05-02T08:47:39;12.57;;;10.37;;
803;SDS011;25687;49.976;8.240;2023-05-02T08:50:05;11.77;;;10.40;;
803;SDS011;25687;49.976;8.240;2023-05-02T08:52:35;12.30;;;10.10;;
803;SDS011;25687;49.976;8.240;2023-05-02T08:55:01;13.67;;;10.80;;
803;SDS011;25687;49.976;8.240;2023-05-02T08:57:28;17.03;;;12.40;;
803;SDS011;25687;49.976;8.240;2023-05-02T08:59:57;14.87;;;13.03;;
803;SDS011;25687;49.976;8.240;2023-05-02T09:05:25;13.67;;;11.50;;
803;SDS011;25687;49.976;8.240;2023-05-02T09:07:51;15.03;;;13.03;;
803;SDS011;25687;49.976;8.240;2023-05-02T09:10:16;15.00;;;12.97;;
803;SDS011;25687;49.976;8.240;2023-05-02T09:12:42;16.20;;;12.87;;
803;SDS011;25687;49.976;8.240;2023-05-02T09:15:08;15.23;;;13.00;;
803;SDS011;25687;49.976;8.240;2023-05-02T09:17:38;11.33;;;10.13;;
803;SDS011;25687;49.976;8.240;2023-05-02T09:20:05;13.27;;;11.47;;
803;SDS011;25687;49.976;8.240;2023-05-02T09:22:31;13.07;;;11.23;;
803;SDS011;25687;49.976;8.240;2023-05-02T09:24:57;13.00;;;10.77;;
803;SDS011;25687;49.976;8.240;2023-05-02T09:27:22;13.23;;;10.53;;
803;SDS011;25687;49.976;8.240;2023-05-02T09:29:47;11.97;;;10.53;;
803;SDS011;25687;49.976;8.240;2023-05-02T09:32:12;11.33;;;9.43;;
803;SDS011;25687;49.976;8.240;2023-05-02T09:34:38;11.83;;;10.50;;
803;SDS011;25687;49.976;8.240;2023-05-02T09:37:03;11.20;;;10.10;;
803;SDS011;25687;49.976;8.240;2023-05-02T09:39:29;11.03;;;9.73;;
803;SDS011;25687;49.976;8.240;2023-05-02T09:41:55;11.53;;;9.90;;
803;SDS011;25687;49.976;8.240;2023-05-02T09:44:22;13.27;;;10.80;;
803;SDS011;25687;49.976;8.240;2023-05-02T09:46:50;11.73;;;10.50;;
803;SDS011;25687;49.976;8.240;2023-05-02T09:49:16;11.20;;;10.00;;
803;SDS011;25687;49.976;8.240;2023-05-02T09:51:43;12.30;;;11.00;;
803;SDS011;25687;49.976;8.240;2023-05-02T09:54:09;11.60;;;9.80;;
803;SDS011;25687;49.976;8.240;2023-05-02T09:56:53;11.90;;;10.67;;
803;SDS011;25687;49.976;8.240;2023-05-02T09:59:20;12.80;;;11.50;;
803;SDS011;25687;49.976;8.240;2023-05-02T10:01:52;11.73;;;10.53;;
803;SDS011;25687;49.976;8.240;2023-05-02T10:04:19;12.50;;;11.20;;
803;SDS011;25687;49.976;8.240;2023-05-02T10:06:45;11.90;;;10.63;;
803;SDS011;25687;49.976;8.240;2023-05-02T10:09:13;13.27;;;11.70;;
803;SDS011;25687;49.976;8.240;2023-05-02T10:11:41;12.33;;;11.03;;
803;SDS011;25687;49.976;8.240;2023-05-02T10:14:08;13.17;;;11.87;;
803;SDS011;25687;49.976;8.240;2023-05-02T10:16:35;11.30;;;10.07;;
803;SDS011;25687;49.976;8.240;2023-05-02T10:19:05;12.93;;;11.60;;
803;SDS011;25687;49.976;8.240;2023-05-02T10:21:33;11.87;;;10.63;;
803;SDS011;25687;49.976;8.240;2023-05-02T10:24:00;12.40;;;11.20;;
803;SDS011;25687;49.976;8.240;2023-05-02T10:26:28;13.17;;;10.87;;
803;SDS011;25687;49.976;8.240;2023-05-02T10:28:57;10.43;;;9.43;;
803;SDS011;25687;49.976;8.240;2023-05-02T10:31:24;11.33;;;9.60;;
803;SDS011;25687;49.976;8.240;2023-05-02T10:33:51;10.90;;;9.90;;
803;SDS011;25687;49.976;8.240;2023-05-02T10:36:19;11.50;;;10.33;;
803;SDS011;25687;49.976;8.240;2023-05-02T10:38:46;12.03;;;10.83;;
803;SDS011;25687;49.976;8.240;2023-05-02T10:41:20;10.97;;;9.43;;
803;SDS011;25687;49.976;8.240;2023-05-02T10:43:48;11.70;;;10.67;;
803;SDS011;25687;49.976;8.240;2023-05-02T10:46:31;11.57;;;10.57;;
803;SDS011;25687;49.976;8.240;2023-05-02T10:49:06;12.27;;;11.07;;
803;SDS011;25687;49.976;8.240;2023-05-02T10:51:33;12.67;;;11.33;;
803;SDS011;25687;49.976;8.240;2023-05-02T10:59:27;12.77;;;10.93;;
803;SDS011;25687;49.976;8.240;2023-05-02T11:01:57;11.90;;;10.80;;
803;SDS011;25687;49.976;8.240;2023-05-02T11:04:23;11.30;;;10.13;;
803;SDS011;25687;49.976;8.240;2023-05-02T11:11:46;12.67;;;10.97;;
803;SDS011;25687;49.976;8.240;2023-05-02T11:17:14;11.07;;;9.97;;
803;SDS011;25687;49.976;8.240;2023-05-02T11:24:42;10.13;;;9.20;;
803;SDS011;25687;49.976;8.240;2023-05-02T11:35:20;10.37;;;9.30;;
803;SDS011;25687;49.976;8.240;2023-05-02T11:37:57;10.43;;;9.33;;
803;SDS011;25687;49.976;8.240;2023-05-02T11:40:30;11.10;;;9.87;;
803;SDS011;25687;49.976;8.240;2023-05-02T11:42:56;10.67;;;9.57;;
803;SDS011;25687;49.976;8.240;2023-05-02T11:45:33;10.03;;;8.97;;
803;SDS011;25687;49.976;8.240;2023-05-02T11:48:00;10.10;;;9.10;;
803;SDS011;25687;49.976;8.240;2023-05-02T11:50:28;9.93;;;8.93;;
803;SDS011;25687;49.976;8.240;2023-05-02T11:52:54;9.87;;;8.87;;
803;SDS011;25687;49.976;8.240;2023-05-02T11:55:19;9.83;;;8.60;;
803;SDS011;25687;49.976;8.240;2023-05-02T11:57:45;9.30;;;8.50;;
803;SDS011;25687;49.976;8.240;2023-05-02T12:00:11;9.93;;;8.93;;
803;SDS011;25687;49.976;8.240;2023-05-02T12:02:41;5.97;;;5.40;;
803;SDS011;25687;49.976;8.240;2023-05-02T12:05:10;6.33;;;3.80;;
803;SDS011;25687;49.976;8.240;2023-05-02T12:10:03;5.30;;;4.50;;
803;SDS011;25687;49.976;8.240;2023-05-02T12:12:29;4.27;;;3.87;;
803;SDS011;25687;49.976;8.240;2023-05-02T12:14:55;4.47;;;3.57;;
803;SDS011;25687;49.976;8.240;2023-05-02T12:17:20;4.17;;;3.53;;
803;SDS011;25687;49.976;8.240;2023-05-02T12:19:46;5.60;;;3.73;;
803;SDS011;25687;49.976;8.240;2023-05-02T12:22:13;6.00;;;4.43;;
803;SDS011;25687;49.976;8.240;2023-05-02T12:24:39;4.43;;;4.00;;
803;SDS011;25687;49.976;8.240;2023-05-02T12:29:38;4.90;;;4.40;;
803;SDS011;25687;49.976;8.240;2023-05-02T12:32:04;4.47;;;4.03;;
803;SDS011;25687;49.976;8.240;2023-05-02T12:34:33;5.90;;;4.10;;
803;SDS011;25687;49.976;8.240;2023-05-02T12:36:58;4.07;;;3.50;;
803;SDS011;25687;49.976;8.240;2023-05-02T12:39:38;4.67;;;3.70;;
803;SDS011;25687;49.976;8.240;2023-05-02T12:42:11;4.37;;;3.50;;
803;SDS011;25687;49.976;8.240;2023-05-02T12:44:38;5.07;;;3.57;;
803;SDS011;25687;49.976;8.240;2023-05-02T12:47:04;5.20;;;3.50;;
803;SDS011;25687;49.976;8.240;2023-05-02T12:49:30;3.53;;;3.23;;
803;SDS011;25687;49.976;8.240;2023-05-02T12:51:56;4.00;;;2.80;;
803;SDS011;25687;49.976;8.240;2023-05-02T12:54:22;2.80;;;2.60;;
803;SDS011;25687;49.976;8.240;2023-05-02T12:56:47;2.40;;;2.20;;
803;SDS011;25687;49.976;8.240;2023-05-02T12:59:29;3.37;;;3.07;;
803;SDS011;25687;49.976;8.240;2023-05-02T13:01:55;3.13;;;2.83;;
803;SDS011;25687;49.976;8.240;2023-05-02T13:04:21;3.93;;;3.17;;
803;SDS011;25687;49.976;8.240;2023-05-02T13:06:57;4.00;;;3.00;;
803;SDS011;25687;49.976;8.240;2023-05-02T13:09:23;3.47;;;3.17;;
803;SDS011;25687;49.976;8.240;2023-05-02T13:11:48;3.80;;;3.40;;
803;SDS011;25687;49.976;8.240;2023-05-02T13:14:14;3.90;;;3.60;;
803;SDS011;25687;49.976;8.240;2023-05-02T13:16:39;4.30;;;3.70;;
803;SDS011;25687;49.976;8.240;2023-05-02T13:19:05;4.73;;;3.67;;
803;SDS011;25687;49.976;8.240;2023-05-02T13:21:30;4.03;;;3.73;;
803;SDS011;25687;49.976;8.240;2023-05-02T13:23:56;5.00;;;4.50;;
803;SDS011;25687;49.976;8.240;2023-05-02T13:26:22;5.33;;;4.83;;
803;SDS011;25687;49.976;8.240;2023-05-02T13:28:48;5.80;;;5.40;;
803;SDS011;25687;49.976;8.240;2023-05-02T13:31:13;6.37;;;5.13;;
803;SDS011;25687;49.976;8.240;2023-05-02T13:33:38;5.43;;;4.93;;
803;SDS011;25687;49.976;8.240;2023-05-02T13:36:03;6.30;;;5.67;;
803;SDS011;25687;49.976;8.240;2023-05-02T13:38:29;5.40;;;4.97;;
803;SDS011;25687;49.976;8.240;2023-05-02T13:40:54;5.53;;;5.03;;
803;SDS011;25687;49.976;8.240;2023-05-02T13:43:20;4.90;;;4.50;;
803;SDS011;25687;49.976;8.240;2023-05-02T13:45:45;6.57;;;5.47;;
803;SDS011;25687;49.976;8.240;2023-05-02T13:48:12;5.40;;;4.90;;
803;SDS011;25687;49.976;8.240;2023-05-02T13:50:39;5.67;;;5.17;;
803;SDS011;25687;49.976;8.240;2023-05-02T13:53:04;6.10;;;5.60;;
803;SDS011;25687;49.976;8.240;2023-05-02T13:55:30;6.00;;;5.23;;
803;SDS011;25687;49.976;8.240;2023-05-02T13:57:55;5.90;;;5.40;;
803;SDS011;25687;49.976;8.240;2023-05-02T14:00:20;6.03;;;5.50;;
803;SDS011;25687;49.976;8.240;2023-05-02T14:02:45;6.07;;;5.47;;
803;SDS011;25687;49.976;8.240;2023-05-02T14:05:12;6.13;;;5.53;;
803;SDS011;25687;49.976;8.240;2023-05-02T14:07:38;5.83;;;5.27;;
803;SDS011;25687;49.976;8.240;2023-05-02T14:10:03;5.30;;;4.80;;
803;SDS011;25687;49.976;8.240;2023-05-02T14:12:29;5.33;;;4.93;;
803;SDS011;25687;49.976;8.240;2023-05-02T14:14:55;5.70;;;5.03;;
803;SDS011;25687;49.976;8.240;2023-05-02T14:17:20;5.60;;;4.93;;
803;SDS011;25687;49.976;8.240;2023-05-02T14:19:48;6.10;;;5.20;;
803;SDS011;25687;49.976;8.240;2023-05-02T14:22:14;5.47;;;4.97;;
803;SDS011;25687;49.976;8.240;2023-05-02T14:24:40;7.43;;;4.80;;
803;SDS011;25687;49.976;8.240;2023-05-02T14:27:05;6.80;;;4.93;;
803;SDS011;25687;49.976;8.240;2023-05-02T14:29:31;5.57;;;4.33;;
803;SDS011;25687;49.976;8.240;2023-05-02T14:31:57;5.90;;;5.23;;
803;SDS011;25687;49.976;8.240;2023-05-02T14:34:22;5.93;;;4.10;;
803;SDS011;25687;49.976;8.240;2023-05-02T14:36:50;6.90;;;4.67;;
803;SDS011;25687;49.976;8.240;2023-05-02T14:39:16;5.20;;;4.70;;
803;SDS011;25687;49.976;8.240;2023-05-02T14:41:41;6.63;;;5.57;;
803;SDS011;25687;49.976;8.240;2023-05-02T14:44:06;5.43;;;4.70;;
803;SDS011;25687;49.976;8.240;2023-05-02T14:46:32;5.80;;;5.20;;
803;SDS011;25687;49.976;8.240;2023-05-02T14:48:57;7.90;;;4.60;;
803;SDS011;25687;49.976;8.240;2023-05-02T14:51:22;5.80;;;4.53;;
803;SDS011;25687;49.976;8.240;2023-05-02T14:53:47;5.30;;;4.73;;
803;SDS011;25687;49.976;8.240;2023-05-02T14:56:13;7.70;;;4.60;;
803;SDS011;25687;49.976;8.240;2023-05-02T14:58:41;5.03;;;4.60;;
803;SDS011;25687;49.976;8.240;2023-05-02T15:01:07;5.13;;;4.63;;
803;SDS011;25687;49.976;8.240;2023-05-02T15:03:39;5.33;;;4.53;;
803;SDS011;25687;49.976;8.240;2023-05-02T15:06:04;9.27;;;4.67;;
803;SDS011;25687;49.976;8.240;2023-05-02T15:08:29;5.57;;;5.07;;
803;SDS011;25687;49.976;8.240;2023-05-02T15:10:55;6.53;;;4.67;;
803;SDS011;25687;49.976;8.240;2023-05-02T15:13:20;3.90;;;3.60;;
803;SDS011;25687;49.976;8.240;2023-05-02T15:15:46;4.63;;;3.63;;
803;SDS011;25687;49.976;8.240;2023-05-02T15:18:11;5.23;;;3.70;;
803;SDS011;25687;49.976;8.240;2023-05-02T15:20:36;4.93;;;3.50;;
803;SDS011;25687;49.976;8.240;2023-05-02T15:23:02;4.83;;;3.20;;
803;SDS011;25687;49.976;8.240;2023-05-02T15:25:28;5.33;;;3.60;;
803;SDS011;25687;49.976;8.240;2023-05-02T15:27:54;4.57;;;3.53;;
803;SDS011;25687;49.976;8.240;2023-05-02T15:30:19;4.17;;;3.50;;
803;SDS011;25687;49.976;8.240;2023-05-02T15:32:45;5.57;;;2.87;;
803;SDS011;25687;49.976;8.240;2023-05-02T15:35:10;2.90;;;2.50;;
803;SDS011;25687;49.976;8.240;2023-05-02T15:37:36;3.10;;;2.80;;
803;SDS011;25687;49.976;8.240;2023-05-02T15:40:01;4.67;;;2.83;;
803;SDS011;25687;49.976;8.240;2023-05-02T15:42:27;3.27;;;2.87;;